Time;durP1;ratioP1;P1;durP2;ratioP2;P2;SDS_P1;SDS_P2;PMS_P1;PMS_P2;Temp;Humidity;BMP_temperature;BMP_pressure;BME280_temperature;BME280_humidity;BME280_pressure;Samples;Min_cycle;Max_cycle;Signal;HPM_P1;HPM_P2
2024/02/21 00:01:16;;;;;;;16.83;6.97;;;;;;;0.87;100.00;97707.88;5013600;28;20142;-71
2024/02/21 00:03:42;;;;;;;17.20;6.65;;;;;;;0.81;100.00;97708.97;5002726;28;20037;-72
2024/02/21 00:06:07;;;;;;;14.55;6.97;;;;;;;0.78;100.00;97713.03;5013880;28;20034;-72
2024/02/21 00:08:33;;;;;;;17.25;7.68;;;;;;;0.76;100.00;97716.00;4983955;28;20042;-70
2024/02/21 00:10:58;;;;;;;13.73;7.10;;;;;;;0.76;100.00;97718.72;4999168;28;20046;-73
2024/02/21 00:13:24;;;;;;;17.85;7.57;;;;;;;0.83;100.00;97718.41;5019659;28;20507;-73
2024/02/21 00:15:49;;;;;;;16.05;6.82;;;;;;;0.93;100.00;97721.03;5003722;28;20080;-72
2024/02/21 00:18:15;;;;;;;19.00;6.93;;;;;;;0.90;100.00;97712.69;5013697;28;20140;-72
2024/02/21 00:20:40;;;;;;;18.23;6.70;;;;;;;0.92;100.00;97714.03;5019630;28;20038;-72
2024/02/21 00:23:06;;;;;;;18.48;6.30;;;;;;;0.87;100.00;97719.47;5015144;28;20044;-73
2024/02/21 00:25:31;;;;;;;17.98;6.65;;;;;;;0.85;100.00;97704.66;4995120;28;20123;-72
2024/02/21 00:27:56;;;;;;;14.23;6.60;;;;;;;0.81;100.00;97715.19;5019592;28;20076;-71
2024/02/21 00:30:22;;;;;;;15.00;6.50;;;;;;;0.79;100.00;97713.84;5014488;28;20049;-72
2024/02/21 00:32:47;;;;;;;11.45;7.05;;;;;;;0.77;100.00;97711.41;5019975;28;20049;-72
2024/02/21 00:35:14;;;;;;;11.32;6.63;;;;;;;0.72;100.00;97708.75;5016201;28;20041;-73
2024/02/21 00:37:39;;;;;;;12.38;6.07;;;;;;;0.72;100.00;97714.97;5018629;28;20049;-72
2024/02/21 00:40:05;;;;;;;13.73;6.88;;;;;;;0.89;100.00;97709.19;5013837;28;20046;-73
2024/02/21 00:42:31;;;;;;;15.73;6.60;;;;;;;0.94;100.00;97706.47;5019095;28;20045;-74
2024/02/21 00:44:56;;;;;;;15.85;6.50;;;;;;;0.94;100.00;97700.28;5020117;28;20041;-73
2024/02/21 00:47:22;;;;;;;17.90;6.38;;;;;;;0.88;100.00;97696.81;5027923;28;20041;-72
2024/02/21 00:49:47;;;;;;;13.10;6.38;;;;;;;0.87;100.00;97694.41;5003389;28;20045;-73
2024/02/21 00:52:12;;;;;;;9.75;5.90;;;;;;;0.99;100.00;97691.34;4996971;28;20124;-72
2024/02/21 00:54:38;;;;;;;13.20;6.45;;;;;;;1.16;100.00;97691.75;5018715;28;20104;-72
2024/02/21 00:57:03;;;;;;;14.20;6.30;;;;;;;1.27;100.00;97690.59;5017037;28;20060;-72
2024/02/21 00:59:28;;;;;;;11.80;5.35;;;;;;;1.31;100.00;97697.06;5022073;28;20685;-72
2024/02/21 01:01:54;;;;;;;11.07;6.00;;;;;;;1.39;100.00;97687.53;5021465;28;20081;-72
2024/02/21 01:04:19;;;;;;;9.50;5.57;;;;;;;1.41;100.00;97681.88;4999956;28;20053;-72
2024/02/21 01:06:45;;;;;;;15.05;7.43;;;;;;;1.37;100.00;97680.81;5004344;28;20114;-72
2024/02/21 01:09:13;;;;;;;13.15;5.80;;;;;;;1.36;100.00;97677.31;5018144;28;20113;-72
2024/02/21 01:11:38;;;;;;;11.50;5.90;;;;;;;1.36;100.00;97674.59;5021552;28;20042;-71
2024/02/21 01:14:03;;;;;;;15.50;6.22;;;;;;;1.38;100.00;97672.44;5018114;28;20036;-70
2024/02/21 01:16:29;;;;;;;11.55;5.57;;;;;;;1.43;100.00;97668.88;5022090;28;20045;-73
2024/02/21 01:18:54;;;;;;;11.77;5.82;;;;;;;1.34;100.00;97658.69;5022553;28;20471;-72
2024/02/21 01:21:20;;;;;;;9.82;5.25;;;;;;;1.34;100.00;97658.69;5016554;28;28917;-74
2024/02/21 01:23:45;;;;;;;9.63;5.05;;;;;;;1.33;100.00;97658.97;5015039;28;20079;-74
2024/02/21 01:26:13;;;;;;;12.50;5.55;;;;;;;1.31;100.00;97653.06;4996527;28;20045;-73
2024/02/21 01:28:39;;;;;;;12.90;5.93;;;;;;;1.34;100.00;97645.19;5004744;28;20052;-74
2024/02/21 01:31:04;;;;;;;11.88;5.72;;;;;;;1.33;100.00;97646.28;5010273;28;20400;-74
2024/02/21 01:33:34;;;;;;;11.18;5.78;;;;;;;1.06;100.00;97641.41;5022923;28;20052;-73
2024/02/21 01:36:02;;;;;;;12.70;6.22;;;;;;;0.91;100.00;97646.88;5020786;28;20034;-74
2024/02/21 01:38:28;;;;;;;12.38;6.03;;;;;;;0.84;100.00;97647.19;5000696;28;20047;-74
2024/02/21 01:40:54;;;;;;;14.38;6.22;;;;;;;0.94;100.00;97644.44;5022163;28;20095;-73
2024/02/21 01:43:21;;;;;;;14.90;6.93;;;;;;;1.12;100.00;97639.44;5009098;28;20473;-73
2024/02/21 01:45:49;;;;;;;14.90;6.65;;;;;;;1.24;100.00;97636.38;5006436;28;20504;-75
2024/02/21 01:48:15;;;;;;;12.30;5.40;;;;;;;1.25;100.00;97646.09;5027124;28;20041;-74
2024/02/21 01:50:40;;;;;;;12.32;6.10;;;;;;;1.29;100.00;97639.03;5026987;28;20045;-74
2024/02/21 01:53:07;;;;;;;12.18;6.07;;;;;;;1.24;100.00;97657.97;5017436;28;20041;-74
2024/02/21 01:55:32;;;;;;;9.98;6.38;;;;;;;1.24;100.00;97652.56;4995314;28;20091;-73
2024/02/21 01:57:58;;;;;;;12.07;6.20;;;;;;;1.29;100.00;97652.53;5022732;28;20397;-76
2024/02/21 02:00:24;;;;;;;16.88;6.22;;;;;;;1.32;100.00;97646.56;5019202;28;20045;-75
2024/02/21 02:02:50;;;;;;;13.30;6.15;;;;;;;1.41;100.00;97644.88;5016211;28;20044;-72
2024/02/21 02:05:18;;;;;;;11.48;6.25;;;;;;;1.46;100.00;97633.22;5021439;28;20068;-72
2024/02/21 02:07:44;;;;;;;12.25;6.20;;;;;;;1.43;100.00;97629.19;5026281;28;20454;-72
2024/02/21 02:10:09;;;;;;;9.15;5.53;;;;;;;1.50;100.00;97635.06;5018593;28;20037;-73
2024/02/21 02:12:35;;;;;;;18.00;6.22;;;;;;;1.60;100.00;97623.34;5006649;28;20037;-73
2024/02/21 02:15:05;;;;;;;11.50;5.47;;;;;;;1.46;100.00;97612.44;5030456;28;20515;-73
2024/02/21 02:17:31;;;;;;;12.85;5.35;;;;;;;1.24;100.00;97610.22;5029993;28;20045;-73
2024/02/21 02:19:57;;;;;;;13.32;5.88;;;;;;;0.95;100.00;97605.59;5018848;28;20048;-73
2024/02/21 02:22:28;;;;;;;10.30;6.10;;;;;;;0.78;100.00;97588.19;5017525;28;20064;-74
2024/02/21 02:24:54;;;;;;;14.88;6.05;;;;;;;0.71;100.00;97593.91;5014131;28;20134;-71
2024/02/21 02:27:19;;;;;;;13.13;6.10;;;;;;;0.81;100.00;97588.44;5009214;28;20493;-73
2024/02/21 02:29:44;;;;;;;15.93;6.70;;;;;;;0.97;100.00;97582.91;5022185;28;20526;-73
2024/02/21 02:32:10;;;;;;;11.60;6.03;;;;;;;1.09;100.00;97577.97;5016546;28;20658;-73
2024/02/21 02:34:35;;;;;;;13.23;6.13;;;;;;;1.19;100.00;97575.19;5013896;28;20037;-73
2024/02/21 02:37:00;;;;;;;15.07;6.95;;;;;;;1.31;100.00;97582.88;5014161;28;20102;-73
2024/02/21 02:39:26;;;;;;;14.95;6.18;;;;;;;1.32;100.00;97579.91;5016398;28;20049;-72
2024/02/21 02:41:52;;;;;;;12.00;7.28;;;;;;;1.42;100.00;97578.19;5009758;28;20046;-73
2024/02/21 02:44:17;;;;;;;10.13;6.07;;;;;;;1.46;100.00;97574.63;5013556;28;20056;-75
2024/02/21 02:46:42;;;;;;;12.98;6.07;;;;;;;1.45;100.00;97574.91;5005095;28;20077;-73
2024/02/21 02:49:08;;;;;;;11.48;6.13;;;;;;;1.47;100.00;97568.13;4999851;28;20045;-74
2024/02/21 02:51:34;;;;;;;14.65;6.10;;;;;;;1.43;100.00;97569.81;5004748;28;20045;-74
2024/02/21 02:53:59;;;;;;;16.40;6.15;;;;;;;1.40;100.00;97567.66;4999752;28;20046;-74
2024/02/21 02:56:25;;;;;;;15.07;5.97;;;;;;;1.40;100.00;97562.25;4996522;28;20469;-77
2024/02/21 02:58:50;;;;;;;11.88;6.03;;;;;;;1.40;100.00;97564.97;4998252;28;20042;-74
2024/02/21 03:01:15;;;;;;;14.10;5.88;;;;;;;1.38;100.00;97561.75;4990632;28;20672;-73
2024/02/21 03:03:41;;;;;;;12.35;6.13;;;;;;;1.40;100.00;97559.56;5001308;28;20046;-73
2024/02/21 03:06:06;;;;;;;13.05;5.88;;;;;;;1.43;100.00;97550.91;4996850;28;20052;-71
2024/02/21 03:08:32;;;;;;;9.73;5.90;;;;;;;1.42;100.00;97551.19;4982933;28;20045;-75
2024/02/21 03:10:59;;;;;;;8.93;5.25;;;;;;;1.39;100.00;97543.66;4982756;28;20038;-76
2024/02/21 03:13:25;;;;;;;11.25;5.85;;;;;;;1.39;100.00;97551.75;4995931;28;20041;-76
2024/02/21 03:15:50;;;;;;;12.57;5.60;;;;;;;1.39;100.00;97546.34;4992311;28;20089;-73
2024/02/21 03:18:16;;;;;;;12.95;5.70;;;;;;;1.29;100.00;97545.38;4989964;28;20062;-75
2024/02/21 03:20:41;;;;;;;11.02;5.65;;;;;;;1.34;100.00;97553.41;4981569;28;20123;-74
2024/02/21 03:23:07;;;;;;;9.45;5.25;;;;;;;1.43;100.00;97542.81;4995144;28;20100;-72
2024/02/21 03:25:32;;;;;;;16.10;6.57;;;;;;;1.46;100.00;97536.00;4992200;28;20042;-73
2024/02/21 03:27:57;;;;;;;13.25;6.22;;;;;;;1.39;100.00;97530.97;4996838;28;20105;-71
2024/02/21 03:30:23;;;;;;;11.82;5.55;;;;;;;1.41;100.00;97544.19;4990906;28;20042;-73
2024/02/21 03:32:48;;;;;;;12.80;5.07;;;;;;;1.47;100.00;97530.34;5000295;28;20132;-73
2024/02/21 03:35:14;;;;;;;9.55;5.32;;;;;;;1.34;100.00;97521.03;4996322;28;20066;-72
2024/02/21 03:37:39;;;;;;;13.85;5.85;;;;;;;1.35;100.00;97519.13;5000201;28;20132;-72
2024/02/21 03:40:09;;;;;;;9.07;6.28;;;;;;;1.25;100.00;97506.56;4995026;28;20524;-74
2024/02/21 03:42:34;;;;;;;13.60;6.90;;;;;;;0.95;100.00;97508.47;4981045;28;20092;-73
2024/02/21 03:45:00;;;;;;;17.10;7.32;;;;;;;0.65;100.00;97498.75;4999209;28;20038;-73
2024/02/21 03:47:25;;;;;;;15.55;6.78;;;;;;;0.61;100.00;97499.59;4995679;28;20062;-74
2024/02/21 03:49:51;;;;;;;16.10;6.97;;;;;;;0.54;100.00;97497.22;4967032;28;20120;-73
2024/02/21 03:52:16;;;;;;;15.88;7.50;;;;;;;0.57;100.00;97496.66;5001261;28;20038;-73
2024/02/21 03:54:42;;;;;;;17.35;7.35;;;;;;;0.58;100.00;97503.69;5000558;28;20038;-73
2024/02/21 03:57:08;;;;;;;12.77;6.85;;;;;;;0.50;100.00;97491.59;4994905;28;20456;-72
2024/02/21 03:59:33;;;;;;;19.38;7.10;;;;;;;0.51;100.00;97495.91;4999159;28;20042;-73
2024/02/21 04:01:59;;;;;;;12.68;5.88;;;;;;;0.55;100.00;97494.25;5000275;28;20493;-73
2024/02/21 04:04:25;;;;;;;16.20;6.78;;;;;;;0.61;100.00;97495.00;4994807;28;20377;-73
2024/02/21 04:06:51;;;;;;;15.02;6.80;;;;;;;0.63;100.00;97494.72;5000269;28;20049;-73
2024/02/21 04:09:17;;;;;;;13.90;7.15;;;;;;;0.63;100.00;97498.25;4994026;28;20687;-72
2024/02/21 04:11:43;;;;;;;14.00;6.95;;;;;;;0.63;100.00;97497.44;4999204;28;20129;-72
2024/02/21 04:14:08;;;;;;;11.60;6.15;;;;;;;0.69;100.00;97497.09;4994645;28;20099;-72
2024/02/21 04:16:34;;;;;;;12.02;5.88;;;;;;;0.79;100.00;97481.91;4999688;28;20042;-71
2024/02/21 04:19:01;;;;;;;12.88;5.72;;;;;;;0.82;100.00;97474.06;4965532;28;20038;-71
2024/02/21 04:21:26;;;;;;;14.95;6.18;;;;;;;0.87;100.00;97475.94;4995488;28;20414;-74
2024/02/21 04:23:51;;;;;;;13.35;6.50;;;;;;;0.81;100.00;97472.47;4998679;28;20076;-73
2024/02/21 04:26:17;;;;;;;13.13;5.88;;;;;;;0.77;100.00;97466.03;4995329;28;20167;-71
2024/02/21 04:28:45;;;;;;;10.70;5.82;;;;;;;0.79;100.00;97458.44;4999770;28;20042;-72
2024/02/21 04:31:10;;;;;;;12.85;6.50;;;;;;;0.81;100.00;97450.06;4988852;28;20049;-73
2024/02/21 04:33:35;;;;;;;15.68;6.10;;;;;;;0.80;100.00;97451.19;5001358;28;20390;-73
2024/02/21 04:36:02;;;;;;;16.30;5.78;;;;;;;0.89;100.00;97444.88;5001733;28;20501;-74
2024/02/21 04:38:28;;;;;;;12.10;6.13;;;;;;;0.89;100.00;97444.06;4985076;28;20041;-73
2024/02/21 04:40:54;;;;;;;8.55;5.68;;;;;;;0.97;100.00;97431.84;5005441;28;20098;-73
2024/02/21 04:43:20;;;;;;;11.23;5.82;;;;;;;0.99;100.00;97435.88;5002063;28;20119;-73
2024/02/21 04:45:45;;;;;;;7.97;5.20;;;;;;;1.00;100.00;97432.09;5005377;28;20505;-74
2024/02/21 04:48:11;;;;;;;11.20;5.63;;;;;;;0.97;100.00;97427.25;5000009;28;20048;-74
2024/02/21 04:50:36;;;;;;;23.42;8.02;;;;;;;1.03;100.00;97439.59;5003915;28;20041;-74
2024/02/21 04:53:02;;;;;;;11.52;6.80;;;;;;;1.26;100.00;97443.41;5016116;28;20034;-78
2024/02/21 04:55:27;;;;;;;9.27;5.35;;;;;;;1.33;100.00;97434.94;4987956;28;20042;-72
2024/02/21 04:57:53;;;;;;;10.95;4.90;;;;;;;1.32;100.00;97425.25;5003582;28;20038;-74
2024/02/21 05:00:19;;;;;;;9.15;4.57;;;;;;;1.28;100.00;97429.63;4998629;28;20041;-72
2024/02/21 05:02:45;;;;;;;9.63;4.75;;;;;;;1.28;100.00;97433.13;5001808;28;20038;-75
2024/02/21 05:05:10;;;;;;;7.78;4.20;;;;;;;1.37;100.00;97443.25;4997319;28;20053;-72
2024/02/21 05:07:35;;;;;;;7.72;4.53;;;;;;;1.44;100.00;97428.34;5002956;28;20049;-72
2024/02/21 05:10:01;;;;;;;6.75;4.00;;;;;;;1.41;100.00;97420.81;4983361;28;20042;-77
2024/02/21 05:12:27;;;;;;;8.98;4.20;;;;;;;1.40;100.00;97419.19;4992262;28;20054;-72
2024/02/21 05:14:52;;;;;;;8.40;4.20;;;;;;;1.44;100.00;97409.44;5002893;28;20061;-72
2024/02/21 05:17:17;;;;;;;8.52;4.50;;;;;;;1.47;100.00;97395.34;4993995;28;20053;-73
2024/02/21 05:19:42;;;;;;;11.85;5.85;;;;;;;1.56;100.00;97392.00;5003962;28;20076;-73
2024/02/21 05:22:08;;;;;;;11.50;6.00;;;;;;;1.63;100.00;97385.16;4999981;28;20121;-73
2024/02/21 05:24:33;;;;;;;11.60;5.28;;;;;;;1.66;100.00;97378.38;4997957;28;20046;-74
2024/02/21 05:26:59;;;;;;;8.50;3.92;;;;;;;1.63;100.00;97368.94;4995714;28;20396;-73
2024/02/21 05:29:24;;;;;;;10.50;4.50;;;;;;;1.67;100.00;97371.88;5000088;28;20060;-73
2024/02/21 05:31:53;;;;;;;5.25;3.75;;;;;;;1.70;100.00;97382.09;5002927;28;20452;-73
2024/02/21 05:34:19;;;;;;;7.80;3.85;;;;;;;1.78;100.00;97378.72;5001153;28;20047;-73
2024/02/21 05:36:45;;;;;;;7.30;3.85;;;;;;;2.03;100.00;97387.53;5011806;28;20054;-73
2024/02/21 05:39:11;;;;;;;8.27;4.38;;;;;;;2.07;100.00;97386.69;5001143;28;20034;-71
2024/02/21 05:41:36;;;;;;;11.05;4.63;;;;;;;2.12;100.00;97387.69;5006181;28;20046;-72
2024/02/21 05:44:02;;;;;;;6.63;3.45;;;;;;;2.14;100.00;97385.47;5005668;28;20121;-76
2024/02/21 05:46:28;;;;;;;6.30;3.92;;;;;;;2.12;100.00;97380.38;5009258;28;20440;-72
2024/02/21 05:48:53;;;;;;;7.20;3.72;;;;;;;2.07;100.00;97364.22;4988818;28;20038;-74
2024/02/21 05:51:19;;;;;;;8.02;3.88;;;;;;;1.93;100.00;97361.50;4993654;28;20049;-72
2024/02/21 05:53:44;;;;;;;13.15;4.07;;;;;;;1.79;100.00;97356.03;5002255;28;20049;-73
2024/02/21 05:56:11;;;;;;;9.15;4.22;;;;;;;1.66;100.00;97357.56;4988354;28;20041;-74
2024/02/21 05:58:37;;;;;;;5.97;3.47;;;;;;;1.56;100.00;97368.50;5003241;28;20064;-72
2024/02/21 06:01:03;;;;;;;9.45;3.63;;;;;;;1.51;100.00;97363.19;5001412;28;20034;-74
2024/02/21 06:03:30;;;;;;;6.20;3.88;;;;;;;1.42;100.00;97357.63;4985826;28;20131;-74
2024/02/21 06:05:55;;;;;;;8.98;4.00;;;;;;;1.40;100.00;97350.91;4984812;28;20122;-73
2024/02/21 06:08:20;;;;;;;7.00;3.92;;;;;;;1.44;100.00;97346.53;4979113;28;20049;-72
2024/02/21 06:10:47;;;;;;;5.25;3.92;;;;;;;1.45;100.00;97332.75;5001643;28;20053;-72
2024/02/21 06:13:12;;;;;;;8.52;3.75;;;;;;;1.52;100.00;97337.78;4997910;28;20042;-72
2024/02/21 06:15:37;;;;;;;7.40;4.03;;;;;;;1.55;100.00;97328.28;5003541;28;20045;-74
2024/02/21 06:18:03;;;;;;;6.25;3.45;;;;;;;1.57;100.00;97334.19;4997832;28;20102;-73
2024/02/21 06:20:29;;;;;;;7.32;3.88;;;;;;;1.63;100.00;97338.44;4985917;28;20038;-73
2024/02/21 06:22:54;;;;;;;8.13;3.97;;;;;;;1.85;100.00;97351.34;4984885;28;20040;-72
2024/02/21 06:25:20;;;;;;;8.73;4.28;;;;;;;2.07;100.00;97348.03;4978751;28;22626;-73
2024/02/21 06:27:45;;;;;;;8.13;3.72;;;;;;;2.26;100.00;97345.28;5003154;28;20382;-72
2024/02/21 06:30:11;;;;;;;6.72;4.40;;;;;;;2.33;100.00;97332.19;4980794;28;20451;-76
2024/02/21 06:32:36;;;;;;;22.10;7.85;;;;;;;2.23;100.00;97325.06;5003423;28;20042;-72
2024/02/21 06:35:02;;;;;;;10.30;4.60;;;;;;;2.32;100.00;97329.78;4999298;28;20065;-72
2024/02/21 06:37:27;;;;;;;17.15;4.47;;;;;;;2.46;100.00;97323.28;4989383;28;20049;-73
2024/02/21 06:39:53;;;;;;;16.80;4.50;;;;;;;2.58;100.00;97333.63;4997663;28;20038;-73
2024/02/21 06:42:18;;;;;;;12.43;3.80;;;;;;;2.65;100.00;97330.53;4991538;28;20060;-75
2024/02/21 06:44:44;;;;;;;10.73;4.03;;;;;;;2.58;100.00;97333.63;5003989;28;20046;-74
2024/02/21 06:47:10;;;;;;;9.73;4.38;;;;;;;2.57;100.00;97329.31;4989931;28;20046;-72
2024/02/21 06:49:37;;;;;;;9.32;4.30;;;;;;;2.50;100.00;97334.31;5002540;28;20100;-74
2024/02/21 06:52:04;;;;;;;7.10;4.10;;;;;;;2.56;100.00;97338.53;4997177;28;20061;-70
2024/02/21 06:54:30;;;;;;;9.98;4.20;;;;;;;2.60;100.00;97330.63;5004527;28;20076;-74
2024/02/21 06:56:55;;;;;;;5.88;3.78;;;;;;;2.72;100.00;97324.72;5012223;28;20512;-74
2024/02/21 06:59:21;;;;;;;11.38;4.35;;;;;;;2.99;100.00;97321.19;4997564;28;20834;-73
2024/02/21 07:01:48;;;;;;;10.93;3.90;;;;;;;3.15;100.00;97319.81;5000564;28;20045;-75
2024/02/21 07:04:14;;;;;;;9.40;4.18;;;;;;;3.30;100.00;97317.88;4980460;28;20050;-74
2024/02/21 07:06:40;;;;;;;9.57;4.03;;;;;;;3.65;100.00;97332.50;5000855;28;20045;-74
2024/02/21 07:09:05;;;;;;;7.47;4.53;;;;;;;4.20;100.00;97326.06;4994113;28;20045;-74
2024/02/21 07:11:30;;;;;;;11.23;4.15;;;;;;;4.78;100.00;97314.22;5000576;28;20120;-73
2024/02/21 07:13:56;;;;;;;7.43;4.15;;;;;;;4.67;100.00;97320.25;5002293;28;20064;-75
2024/02/21 07:16:21;;;;;;;9.93;4.75;;;;;;;5.33;100.00;97320.28;4996222;28;20527;-74
2024/02/21 07:18:46;;;;;;;9.73;4.47;;;;;;;5.93;100.00;97321.44;5000885;28;20046;-73
2024/02/21 07:21:12;;;;;;;20.33;5.65;;;;;;;6.54;100.00;97324.09;4996723;28;20400;-75
2024/02/21 07:23:43;;;;;;;12.52;7.05;;;;;;;6.94;100.00;97323.00;5001050;28;20132;-74
2024/02/21 07:26:08;;;;;;;11.10;4.75;;;;;;;7.79;100.00;97316.50;4989963;28;20042;-73
2024/02/21 07:28:33;;;;;;;13.25;4.78;;;;;;;8.64;100.00;97323.44;4991704;28;20050;-74
2024/02/21 07:30:59;;;;;;;12.30;6.20;;;;;;;9.41;100.00;97328.25;4999084;28;20037;-73
2024/02/21 07:33:25;;;;;;;12.95;4.50;;;;;;;10.06;100.00;97319.22;4997837;28;20129;-73
2024/02/21 07:35:51;;;;;;;11.38;4.35;;;;;;;10.38;92.67;97322.06;5004232;28;20103;-73
2024/02/21 07:38:18;;;;;;;10.23;4.00;;;;;;;10.39;99.87;97329.13;4994997;28;20652;-72
2024/02/21 07:40:46;;;;;;;6.97;3.60;;;;;;;10.31;94.81;97328.94;4976853;28;20056;-72
2024/02/21 07:43:11;;;;;;;11.73;3.95;;;;;;;9.68;99.84;97334.94;4998444;28;20473;-72
2024/02/21 07:45:39;;;;;;;10.40;4.10;;;;;;;9.07;100.00;97324.06;4975576;28;20073;-75
2024/02/21 07:48:07;;;;;;;17.50;4.20;;;;;;;8.91;100.00;97332.13;4981580;28;20038;-74
2024/02/21 07:50:33;;;;;;;10.00;3.95;;;;;;;8.65;100.00;97324.25;5000321;28;20126;-73
2024/02/21 07:52:58;;;;;;;9.30;4.63;;;;;;;8.28;100.00;97310.47;4993822;28;20125;-74
2024/02/21 07:55:24;;;;;;;11.02;3.80;;;;;;;8.63;100.00;97313.66;4997431;28;20136;-74
2024/02/21 07:57:49;;;;;;;7.45;3.72;;;;;;;9.17;100.00;97313.47;4989874;28;20054;-74
2024/02/21 08:00:19;;;;;;;13.10;3.80;;;;;;;9.49;100.00;97319.13;4996351;28;20044;-75
2024/02/21 08:02:48;;;;;;;9.73;4.28;;;;;;;9.44;100.00;97318.59;5000903;28;20042;-73
2024/02/21 08:05:14;;;;;;;12.02;3.83;;;;;;;9.93;100.00;97316.50;4995264;28;20040;-74
2024/02/21 08:07:39;;;;;;;8.02;4.00;;;;;;;10.81;100.00;97309.50;4999872;28;20042;-74
2024/02/21 08:10:08;;;;;;;10.27;3.47;;;;;;;11.99;86.08;97304.00;4976617;28;20045;-74
2024/02/21 08:12:33;;;;;;;14.80;3.95;;;;;;;12.65;78.35;97306.00;5000222;28;20053;-74
2024/02/21 08:14:59;;;;;;;7.20;2.90;;;;;;;12.29;74.72;97303.38;5001116;28;20492;-74
2024/02/21 08:17:24;;;;;;;7.18;3.08;;;;;;;13.12;72.65;97305.63;4969929;28;20057;-74
2024/02/21 08:19:50;;;;;;;6.70;2.03;;;;;;;13.61;64.15;97300.47;5000735;28;20088;-75
2024/02/21 08:22:16;;;;;;;7.82;2.22;;;;;;;14.16;59.91;97298.03;4977942;28;20129;-74
2024/02/21 08:24:41;;;;;;;7.97;2.30;;;;;;;14.51;58.83;97300.41;4988729;28;20054;-72
2024/02/21 08:27:07;;;;;;;4.88;2.20;;;;;;;12.89;58.82;97296.59;4985862;28;20433;-74
2024/02/21 08:29:32;;;;;;;7.63;2.60;;;;;;;10.26;74.65;97284.56;4980643;28;20042;-74
2024/02/21 08:31:58;;;;;;;2.75;1.85;;;;;;;9.21;78.03;97288.97;5000070;28;20501;-72
2024/02/21 08:34:23;;;;;;;3.22;1.85;;;;;;;9.91;75.23;97288.69;4976024;28;20052;-72
2024/02/21 08:36:49;;;;;;;6.07;2.05;;;;;;;10.92;74.01;97290.59;5000379;28;20037;-73
2024/02/21 08:39:16;;;;;;;5.80;2.10;;;;;;;12.07;68.14;97295.91;4994582;28;20070;-75
2024/02/21 08:41:42;;;;;;;5.00;1.92;;;;;;;12.47;65.52;97300.97;4999564;28;20046;-75
2024/02/21 08:44:08;;;;;;;7.07;2.53;;;;;;;12.61;64.51;97294.94;4995799;28;20045;-75
2024/02/21 08:46:33;;;;;;;5.40;1.92;;;;;;;12.63;64.06;97303.63;4999346;28;20044;-74
2024/02/21 08:48:59;;;;;;;3.90;1.95;;;;;;;12.46;64.13;97304.06;4982929;28;20041;-73
2024/02/21 08:51:25;;;;;;;10.13;3.50;;;;;;;12.23;65.28;97294.66;4993591;28;20513;-75
2024/02/21 08:53:51;;;;;;;7.38;2.30;;;;;;;11.81;68.46;97286.31;4985562;28;20042;-73
2024/02/21 08:56:17;;;;;;;7.30;2.83;;;;;;;12.01;65.60;97292.63;5006717;28;20608;-72
2024/02/21 08:58:43;;;;;;;7.07;2.67;;;;;;;12.36;65.33;97289.78;4982737;28;20125;-73
2024/02/21 09:01:11;;;;;;;10.40;2.33;;;;;;;11.92;64.15;97292.84;4982371;28;20061;-73
2024/02/21 09:03:38;;;;;;;4.47;2.47;;;;;;;11.68;70.17;97288.38;4970627;28;20053;-71
2024/02/21 09:06:07;;;;;;;7.63;2.22;;;;;;;12.49;65.63;97279.41;5007767;28;20054;-71
2024/02/21 09:08:32;;;;;;;3.53;2.10;;;;;;;12.86;62.49;97284.38;5004076;28;20038;-72
2024/02/21 09:10:59;;;;;;;24.13;11.40;;;;;;;11.43;72.55;97280.44;5001367;28;20034;-72
2024/02/21 09:13:25;;;;;;;5.47;2.70;;;;;;;12.33;66.65;97285.00;5009506;28;20038;-73
2024/02/21 09:15:50;;;;;;;7.90;2.25;;;;;;;12.89;63.02;97286.41;5012950;28;20069;-74
2024/02/21 09:18:16;;;;;;;7.22;2.47;;;;;;;13.24;62.16;97282.63;5003180;28;20065;-73
2024/02/21 09:20:42;;;;;;;11.23;2.58;;;;;;;13.06;60.88;97282.34;4991067;28;20076;-74
2024/02/21 09:23:08;;;;;;;5.85;2.03;;;;;;;13.03;61.68;97277.56;5002449;28;20046;-72
2024/02/21 09:25:33;;;;;;;7.55;1.83;;;;;;;12.13;63.97;97266.97;4981144;28;20057;-72
2024/02/21 09:28:01;;;;;;;9.05;2.00;;;;;;;12.60;62.61;97274.13;5003367;28;20048;-73
2024/02/21 09:30:26;;;;;;;7.00;1.92;;;;;;;12.50;62.38;97272.00;4981505;28;20061;-73
2024/02/21 09:32:52;;;;;;;6.43;1.90;;;;;;;12.43;62.22;97264.41;5004334;28;20460;-73
2024/02/21 09:35:18;;;;;;;4.75;1.70;;;;;;;11.95;63.64;97259.19;4996532;28;20046;-72
2024/02/21 09:37:43;;;;;;;10.85;2.20;;;;;;;12.27;63.43;97266.47;5002217;28;20565;-73
2024/02/21 09:40:09;;;;;;;8.38;2.88;;;;;;;12.29;63.35;97253.16;4994375;28;20115;-69
2024/02/21 09:42:39;;;;;;;7.15;2.00;;;;;;;11.32;67.59;97251.94;5000275;28;20104;-74
2024/02/21 09:45:08;;;;;;;9.65;2.35;;;;;;;12.04;67.44;97257.00;4965383;28;20049;-72
2024/02/21 09:47:58;;;;;;;10.20;2.93;;;;;;;12.44;65.72;97249.50;5008006;28;20045;-74
2024/02/21 09:50:24;;;;;;;33.83;4.28;;;;;;;12.39;66.23;97245.13;4988010;28;20272;-72
2024/02/21 09:52:52;;;;;;;9.43;2.50;;;;;;;12.40;65.78;97248.66;4989170;28;20053;-73
2024/02/21 09:55:18;;;;;;;4.95;2.28;;;;;;;12.33;63.86;97251.25;5000946;28;20034;-73
2024/02/21 09:57:44;;;;;;;23.10;3.75;;;;;;;12.19;66.51;97252.59;4997014;28;20046;-73
2024/02/21 10:00:10;;;;;;;5.75;2.42;;;;;;;11.70;68.64;97246.88;4999679;28;20091;-72
2024/02/21 10:02:36;;;;;;;5.05;2.20;;;;;;;11.91;71.84;97243.81;4989722;28;20054;-71
2024/02/21 10:05:04;;;;;;;9.95;2.53;;;;;;;11.62;71.45;97243.19;4991628;28;20421;-72
2024/02/21 10:07:30;;;;;;;13.50;2.70;;;;;;;12.56;69.54;97241.06;5004740;28;20077;-71
2024/02/21 10:10:03;;;;;;;7.05;2.53;;;;;;;12.90;66.96;97240.47;4990040;28;20394;-71
2024/02/21 10:12:28;;;;;;;7.18;2.78;;;;;;;13.32;64.33;97234.81;5005445;28;20049;-72
2024/02/21 10:15:05;;;;;;;11.48;3.05;;;;;;;14.09;61.27;97240.13;4999316;28;20145;-73
2024/02/21 10:17:32;;;;;;;11.93;4.07;;;;;;;14.28;59.24;97244.66;5005213;28;20052;-72
2024/02/21 10:20:11;;;;;;;13.63;4.70;;;;;;;14.24;59.84;97236.34;4984721;28;20049;-73
2024/02/21 10:22:39;;;;;;;18.23;10.98;;;;;;;12.52;65.91;97231.19;5006300;28;20156;-73
2024/02/21 10:25:12;;;;;;;14.35;9.07;;;;;;;12.71;66.45;97224.81;4972382;28;20082;-69
2024/02/21 10:27:38;;;;;;;24.27;13.45;;;;;;;13.34;64.26;97226.19;5006761;28;20132;-71
2024/02/21 10:30:12;;;;;;;28.17;15.18;;;;;;;13.72;63.80;97225.16;4996257;28;20049;-72
2024/02/21 10:32:49;;;;;;;31.08;19.17;;;;;;;13.53;63.18;97228.81;5004458;28;20046;-72
2024/02/21 10:35:25;;;;;;;19.42;11.73;;;;;;;12.03;68.42;97203.25;4995146;28;20037;-73
2024/02/21 10:37:55;;;;;;;11.18;6.30;;;;;;;12.69;69.66;97208.69;5040504;23;20046;-73
2024/02/21 10:40:22;;;;;;;14.48;7.65;;;;;;;12.99;64.56;97203.28;4998047;28;20060;-73
2024/02/21 10:42:52;;;;;;;14.88;8.02;;;;;;;13.32;64.10;97201.81;4998112;28;20506;-75
2024/02/21 10:45:18;;;;;;;;;;;;;;;14.65;58.65;97202.50;4995855;28;20841;-71
2024/02/21 10:47:52;;;;;;;16.95;9.63;;;;;;;14.68;56.26;97201.75;4999108;28;19925;-72
2024/02/21 10:50:19;;;;;;;17.33;9.88;;;;;;;15.08;54.83;97200.06;4981455;28;20454;-73
2024/02/21 10:53:00;;;;;;;24.95;11.10;;;;;;;14.05;58.74;97187.75;4981974;28;20094;-72
2024/02/21 10:55:37;;;;;;;17.10;9.88;;;;;;;14.26;57.64;97183.59;4977045;28;20053;-71
2024/02/21 10:58:03;;;;;;;13.45;7.75;;;;;;;14.00;57.47;97181.78;4986576;28;20200;-74
2024/02/21 11:00:30;;;;;;;29.02;13.23;;;;;;;14.61;56.62;97169.38;4979558;28;20606;-72
2024/02/21 11:02:57;;;;;;;16.50;10.55;;;;;;;14.19;56.80;97156.00;4980428;28;20133;-72
2024/02/21 11:05:24;;;;;;;16.83;9.32;;;;;;;14.25;56.76;97155.28;4992370;28;20319;-73
2024/02/21 11:07:51;;;;;;;17.73;8.50;;;;;;;14.29;55.32;97153.34;4992839;28;20054;-72
2024/02/21 11:10:23;;;;;;;15.20;7.10;;;;;;;14.10;56.43;97148.84;4981590;28;20647;-72
2024/02/21 11:12:52;;;;;;;12.55;6.13;;;;;;;14.22;59.28;97147.75;4997060;28;20137;-73
2024/02/21 11:15:17;;;;;;;14.77;5.97;;;;;;;13.91;61.42;97140.78;5005238;28;20042;-73
2024/02/21 11:17:54;;;;;;;10.00;4.78;;;;;;;13.24;64.16;97136.06;4983742;28;20464;-72
2024/02/21 11:20:20;;;;;;;9.73;4.47;;;;;;;13.03;69.09;97129.09;4974371;28;20046;-73
2024/02/21 11:22:47;;;;;;;15.50;4.53;;;;;;;12.24;71.79;97116.91;4979639;28;20453;-73
2024/02/21 11:25:21;;;;;;;13.10;5.03;;;;;;;12.31;78.72;97110.75;4990824;28;20054;-72